createdAt,value
2022-08-26T00:02:15.928Z,6.30
2022-08-26T00:04:46.502Z,5.32
2022-08-26T00:07:13.274Z,5.70
2022-08-26T00:09:40.391Z,5.88
2022-08-26T00:12:07.588Z,6.35
2022-08-26T00:14:35.779Z,5.63
2022-08-26T00:17:02.603Z,7.43
2022-08-26T00:19:29.484Z,7.13
2022-08-26T00:21:56.330Z,6.40
2022-08-26T00:24:23.540Z,6.65
2022-08-26T00:26:50.672Z,7.60
2022-08-26T00:29:18.675Z,6.05
2022-08-26T00:31:45.769Z,6.68
2022-08-26T00:34:13.134Z,7.32
2022-08-26T00:36:40.950Z,7.00
2022-08-26T00:39:07.885Z,7.28
2022-08-26T00:41:35.934Z,7.18
2022-08-26T00:44:03.043Z,6.28
2022-08-26T00:46:31.893Z,6.70
2022-08-26T00:49:11.939Z,8.05
2022-08-26T00:51:44.555Z,7.28
2022-08-26T00:54:12.422Z,8.15
2022-08-26T00:57:00.171Z,7.63
2022-08-26T00:59:27.353Z,8.27
2022-08-26T01:01:54.271Z,8.32
2022-08-26T01:04:21.994Z,9.20
2022-08-26T01:06:49.635Z,9.15
2022-08-26T01:09:16.709Z,7.97
2022-08-26T01:11:44.139Z,8.38
2022-08-26T01:14:12.496Z,9.30
2022-08-26T01:16:39.313Z,8.20
2022-08-26T01:19:33.650Z,9.07
2022-08-26T01:22:05.092Z,8.75
2022-08-26T01:24:31.937Z,8.05
2022-08-26T01:27:05.135Z,7.82
2022-08-26T01:29:32.713Z,7.93
2022-08-26T01:31:59.644Z,8.93
2022-08-26T01:34:31.235Z,8.43
2022-08-26T01:37:15.760Z,8.73
2022-08-26T01:39:43.038Z,8.75
2022-08-26T01:42:13.213Z,8.48
2022-08-26T01:44:42.384Z,8.63
2022-08-26T01:47:10.588Z,9.15
2022-08-26T01:49:37.372Z,8.50
2022-08-26T01:52:04.810Z,9.27
2022-08-26T01:54:31.831Z,9.57
2022-08-26T01:56:58.843Z,9.30
2022-08-26T01:59:25.636Z,10.90
2022-08-26T02:01:52.736Z,9.63
2022-08-26T02:04:33.276Z,9.77
2022-08-26T02:07:02.783Z,9.65
2022-08-26T02:09:30.463Z,10.43
2022-08-26T02:11:58.982Z,9.60
2022-08-26T02:14:33.658Z,10.75
2022-08-26T02:17:01.525Z,9.68
2022-08-26T02:19:30.695Z,9.95
2022-08-26T02:21:59.516Z,10.57
2022-08-26T02:24:28.825Z,10.43
2022-08-26T02:26:56.656Z,9.98
2022-08-26T02:29:34.556Z,10.25
2022-08-26T02:32:01.427Z,10.00
2022-08-26T02:34:32.243Z,10.70
2022-08-26T02:37:04.554Z,9.25
2022-08-26T02:39:32.482Z,10.40
2022-08-26T02:41:59.399Z,10.05
2022-08-26T02:44:26.472Z,10.18
2022-08-26T02:46:54.574Z,9.73
2022-08-26T02:49:21.840Z,9.25
2022-08-26T02:51:49.544Z,9.45
2022-08-26T02:54:17.587Z,10.00
2022-08-26T02:56:44.944Z,9.73
2022-08-26T02:59:14.538Z,9.85
2022-08-26T03:01:41.334Z,9.82
2022-08-26T03:04:10.271Z,9.43
2022-08-26T03:06:37.571Z,9.20
2022-08-26T03:09:05.084Z,8.55
2022-08-26T03:11:33.152Z,7.93
2022-08-26T03:14:01.819Z,8.07
2022-08-26T03:16:36.697Z,8.65
2022-08-26T03:19:04.259Z,6.05
2022-08-26T03:21:31.225Z,8.13
2022-08-26T03:23:58.784Z,7.93
2022-08-26T03:26:26.024Z,8.68
2022-08-26T03:29:11.400Z,8.10
2022-08-26T03:31:38.376Z,8.13
2022-08-26T03:34:05.287Z,8.13
2022-08-26T03:36:32.475Z,7.13
2022-08-26T03:39:02.251Z,7.40
2022-08-26T03:41:29.122Z,7.43
2022-08-26T03:44:01.035Z,7.10
2022-08-26T03:46:28.606Z,7.63
2022-08-26T03:48:55.589Z,7.60
2022-08-26T03:51:22.502Z,6.95
2022-08-26T03:53:51.095Z,8.02
2022-08-26T03:56:17.839Z,7.93
2022-08-26T03:58:44.760Z,6.85
2022-08-26T04:01:13.128Z,7.30
2022-08-26T04:03:59.973Z,6.28
2022-08-26T04:08:56.035Z,6.80
2022-08-26T04:11:26.161Z,6.15
2022-08-26T04:13:56.224Z,6.05
2022-08-26T04:16:23.794Z,7.35
2022-08-26T04:18:52.895Z,6.15
2022-08-26T04:21:19.793Z,6.70
2022-08-26T04:23:48.096Z,6.38
2022-08-26T04:26:15.908Z,6.63
2022-08-26T04:28:42.815Z,7.50
2022-08-26T04:31:14.752Z,6.53
2022-08-26T04:33:43.402Z,6.90
2022-08-26T04:36:10.637Z,6.88
2022-08-26T04:38:37.681Z,6.40
2022-08-26T04:41:05.595Z,7.20
2022-08-26T04:43:42.658Z,6.78
2022-08-26T04:46:10.349Z,6.40
2022-08-26T04:48:41.137Z,45.80
2022-08-26T04:51:09.696Z,9.18
2022-08-26T04:53:37.147Z,7.68
2022-08-26T04:56:04.555Z,8.20
2022-08-26T04:58:31.648Z,6.95
2022-08-26T05:00:58.679Z,7.80
2022-08-26T05:03:30.337Z,8.95
2022-08-26T05:05:57.784Z,7.25
2022-08-26T05:08:24.608Z,8.27
2022-08-26T05:10:56.165Z,7.95
2022-08-26T05:13:27.530Z,7.53
2022-08-26T05:15:54.601Z,7.93
2022-08-26T05:18:27.569Z,8.07
2022-08-26T05:20:54.964Z,7.45
2022-08-26T05:23:22.870Z,7.97
2022-08-26T05:25:53.592Z,8.35
2022-08-26T05:28:22.753Z,8.18
2022-08-26T05:30:49.879Z,8.23
2022-08-26T05:33:17.510Z,8.18
2022-08-26T05:35:44.479Z,8.88
2022-08-26T05:38:14.465Z,9.48
2022-08-26T05:40:44.796Z,8.88
2022-08-26T05:43:13.414Z,10.50
2022-08-26T05:45:46.528Z,10.23
2022-08-26T05:48:16.136Z,9.52
2022-08-26T05:50:48.034Z,9.00
2022-08-26T05:53:17.730Z,8.70
2022-08-26T05:55:49.516Z,8.82
2022-08-26T05:58:17.634Z,8.73
2022-08-26T06:00:45.262Z,8.98
2022-08-26T06:03:12.219Z,8.55
2022-08-26T06:05:39.826Z,9.73
2022-08-26T06:08:14.149Z,9.40
2022-08-26T06:10:45.125Z,8.45
2022-08-26T06:13:13.171Z,8.38
2022-08-26T06:15:50.083Z,9.38
2022-08-26T06:18:19.792Z,8.70
2022-08-26T06:20:57.021Z,8.32
2022-08-26T06:23:44.296Z,8.82
2022-08-26T06:26:11.336Z,8.77
2022-08-26T06:28:38.213Z,8.68
2022-08-26T06:31:06.027Z,8.63
2022-08-26T06:33:33.074Z,9.57
2022-08-26T06:36:01.133Z,8.63
2022-08-26T06:38:28.208Z,7.63
2022-08-26T06:40:55.036Z,8.20
2022-08-26T06:43:23.805Z,8.43
2022-08-26T06:45:51.019Z,8.32
2022-08-26T06:48:19.612Z,7.95
2022-08-26T06:50:46.802Z,8.65
2022-08-26T06:53:17.252Z,7.82
2022-08-26T06:55:46.353Z,9.00
2022-08-26T06:58:14.219Z,8.63
2022-08-26T07:00:47.343Z,9.25
2022-08-26T07:03:16.564Z,7.88
2022-08-26T07:05:45.023Z,9.25
2022-08-26T07:08:16.135Z,7.82
2022-08-26T07:10:44.207Z,8.00
2022-08-26T07:13:12.453Z,7.45
2022-08-26T07:15:42.629Z,8.52
2022-08-26T07:18:09.416Z,8.88
2022-08-26T07:20:42.553Z,8.90
2022-08-26T07:23:11.770Z,9.60
2022-08-26T07:25:40.029Z,9.15
2022-08-26T07:28:07.027Z,9.55
2022-08-26T07:30:34.179Z,9.75
2022-08-26T07:33:00.982Z,10.10
2022-08-26T07:35:27.815Z,10.38
2022-08-26T07:37:57.063Z,10.68
2022-08-26T07:40:24.172Z,9.77
2022-08-26T07:42:51.095Z,9.57
2022-08-26T07:45:19.553Z,10.23
2022-08-26T07:47:46.395Z,10.32
2022-08-26T07:50:13.438Z,11.10
2022-08-26T07:52:42.727Z,10.80
2022-08-26T07:55:10.504Z,10.48
2022-08-26T07:57:37.570Z,10.05
2022-08-26T08:00:08.695Z,8.65
2022-08-26T08:02:35.656Z,9.27
2022-08-26T08:05:02.607Z,9.73
2022-08-26T08:07:44.541Z,9.57
2022-08-26T08:10:14.392Z,8.45
2022-08-26T08:12:41.463Z,8.68
2022-08-26T08:15:09.076Z,7.82
2022-08-26T08:17:36.855Z,7.43
2022-08-26T08:20:05.263Z,6.82
2022-08-26T08:22:32.515Z,6.28
2022-08-26T08:24:59.741Z,5.93
2022-08-26T08:27:28.978Z,5.07
2022-08-26T08:29:57.884Z,5.22
2022-08-26T08:32:24.724Z,6.30
2022-08-26T08:34:52.969Z,4.88
2022-08-26T08:37:20.001Z,5.43
2022-08-26T08:39:47.849Z,5.15
2022-08-26T08:42:42.364Z,4.82
2022-08-26T08:45:28.166Z,4.43
2022-08-26T08:47:59.461Z,3.88
2022-08-26T08:50:37.835Z,4.28
2022-08-26T08:53:11.212Z,4.30
2022-08-26T08:56:05.476Z,3.08
2022-08-26T08:58:56.683Z,2.33
2022-08-26T09:01:52.301Z,2.30
2022-08-26T09:05:15.572Z,2.78
2022-08-26T09:07:47.142Z,2.90
2022-08-26T09:10:19.626Z,2.58
2022-08-26T09:12:46.462Z,2.03
2022-08-26T09:15:34.625Z,2.50
2022-08-26T09:18:13.301Z,2.30
2022-08-26T09:21:09.197Z,2.03
2022-08-26T09:23:41.930Z,1.98
2022-08-26T09:26:39.223Z,1.67
2022-08-26T09:29:09.030Z,1.60
2022-08-26T09:31:37.129Z,1.35
2022-08-26T09:34:26.859Z,1.60
2022-08-26T09:36:55.929Z,1.50
2022-08-26T09:39:29.169Z,1.10
2022-08-26T09:42:14.337Z,1.73
2022-08-26T09:45:05.375Z,1.33
2022-08-26T09:47:54.218Z,1.00
2022-08-26T09:50:30.008Z,1.05
2022-08-26T09:53:12.639Z,0.90
2022-08-26T09:55:42.029Z,0.88
2022-08-26T09:58:13.003Z,1.00
2022-08-26T10:01:01.491Z,0.75
2022-08-26T10:03:33.714Z,0.80
2022-08-26T10:06:08.316Z,0.60
2022-08-26T10:08:58.021Z,0.73
2022-08-26T10:11:47.687Z,0.85
2022-08-26T10:14:30.578Z,0.77
2022-08-26T10:17:03.423Z,0.90
2022-08-26T10:19:57.009Z,0.55
2022-08-26T10:22:26.192Z,0.65
2022-08-26T10:24:57.981Z,0.85
2022-08-26T10:27:49.606Z,1.00
2022-08-26T10:30:21.829Z,0.70
2022-08-26T10:32:58.463Z,0.70
2022-08-26T10:35:27.305Z,1.10
2022-08-26T10:38:02.569Z,0.90
2022-08-26T10:41:02.964Z,0.90
2022-08-26T10:44:06.729Z,1.00
2022-08-26T10:46:44.828Z,0.65
2022-08-26T10:49:17.473Z,0.60
2022-08-26T10:52:02.675Z,0.73
2022-08-26T10:54:55.407Z,0.70
2022-08-26T10:57:41.384Z,0.80
2022-08-26T11:00:37.968Z,0.88
2022-08-26T11:03:27.426Z,1.20
2022-08-26T11:06:16.681Z,0.85
2022-08-26T11:08:52.765Z,1.23
2022-08-26T11:11:42.801Z,0.75
2022-08-26T11:14:12.459Z,0.95
2022-08-26T11:16:44.917Z,0.50
2022-08-26T11:19:59.604Z,0.60
2022-08-26T11:22:34.916Z,0.70
2022-08-26T11:25:06.849Z,0.75
2022-08-26T11:27:36.398Z,0.80
2022-08-26T11:30:29.497Z,0.70
2022-08-26T11:32:58.024Z,0.60
2022-08-26T11:35:25.389Z,0.90
2022-08-26T11:37:55.690Z,1.05
2022-08-26T11:40:34.093Z,0.60
2022-08-26T11:43:22.767Z,0.73
2022-08-26T11:46:00.714Z,0.73
2022-08-26T11:48:33.882Z,0.60
2022-08-26T11:51:03.609Z,0.88
2022-08-26T11:53:33.471Z,0.63
2022-08-26T11:56:02.256Z,0.70
2022-08-26T11:58:30.287Z,0.60
2022-08-26T12:01:03.764Z,0.70
2022-08-26T12:03:51.737Z,0.82
2022-08-26T12:06:30.796Z,0.70
2022-08-26T12:09:04.146Z,0.68
2022-08-26T12:11:36.564Z,0.65
2022-08-26T12:14:09.835Z,0.68
2022-08-26T12:16:38.869Z,0.70
2022-08-26T12:19:41.767Z,0.80
2022-08-26T12:22:15.661Z,0.68
2022-08-26T12:24:45.699Z,0.52
2022-08-26T12:27:26.866Z,0.60
2022-08-26T12:30:02.915Z,0.93
2022-08-26T12:32:32.904Z,1.10
2022-08-26T12:35:24.547Z,0.52
2022-08-26T12:37:55.577Z,0.70
2022-08-26T12:40:35.828Z,0.68
2022-08-26T12:43:04.633Z,0.60
2022-08-26T12:45:36.999Z,0.60
2022-08-26T12:48:25.388Z,0.93
2022-08-26T12:50:53.060Z,0.70
2022-08-26T12:53:26.851Z,0.70
2022-08-26T12:56:05.151Z,0.70
2022-08-26T12:58:43.775Z,0.70
2022-08-26T13:01:11.248Z,0.50
2022-08-26T13:03:46.147Z,0.90
2022-08-26T13:06:23.003Z,0.80
2022-08-26T13:09:08.285Z,0.70
2022-08-26T13:11:56.416Z,0.60
2022-08-26T13:14:24.786Z,0.90
2022-08-26T13:16:52.931Z,0.60
2022-08-26T13:19:22.164Z,0.60
2022-08-26T13:21:50.442Z,0.80
2022-08-26T13:24:22.557Z,0.85
2022-08-26T13:26:50.175Z,0.60
2022-08-26T13:29:18.232Z,0.70
2022-08-26T13:31:46.251Z,0.80
2022-08-26T13:34:15.369Z,0.70
2022-08-26T13:37:00.234Z,0.80
2022-08-26T13:39:27.535Z,0.70
2022-08-26T13:41:54.566Z,0.77
2022-08-26T13:44:24.172Z,0.77
2022-08-26T13:46:51.314Z,0.80
2022-08-26T13:49:18.296Z,0.77
2022-08-26T13:51:45.711Z,0.70
2022-08-26T13:54:12.796Z,0.80
2022-08-26T13:56:39.739Z,0.65
2022-08-26T13:59:07.009Z,0.70
2022-08-26T14:01:35.097Z,0.90
2022-08-26T14:04:03.282Z,0.60
2022-08-26T14:06:30.414Z,0.80
2022-08-26T14:08:57.384Z,0.65
2022-08-26T14:11:25.306Z,0.63
2022-08-26T14:13:52.512Z,0.75
2022-08-26T14:16:26.276Z,0.70
2022-08-26T14:18:53.197Z,0.65
2022-08-26T14:21:20.687Z,0.70
2022-08-26T14:23:50.690Z,0.70
2022-08-26T14:26:28.157Z,0.50
2022-08-26T14:29:00.580Z,0.73
2022-08-26T14:31:29.468Z,0.98
2022-08-26T14:33:58.682Z,0.63
2022-08-26T14:36:30.500Z,0.73
2022-08-26T14:39:00.864Z,0.60
2022-08-26T14:41:29.198Z,0.70
2022-08-26T14:44:00.275Z,0.80
2022-08-26T14:46:32.014Z,1.00
2022-08-26T14:49:01.747Z,0.70
2022-08-26T14:51:29.523Z,0.88
2022-08-26T14:54:16.315Z,0.70
2022-08-26T14:56:50.469Z,0.90
2022-08-26T14:59:22.219Z,0.50
2022-08-26T15:01:52.724Z,0.60
2022-08-26T15:04:20.188Z,0.70
2022-08-26T15:06:51.129Z,0.70
2022-08-26T15:09:21.496Z,0.70
2022-08-26T15:11:48.804Z,0.80
2022-08-26T15:14:19.650Z,0.70
2022-08-26T15:16:50.891Z,0.90
2022-08-26T15:19:17.927Z,1.00
2022-08-26T15:21:45.755Z,0.70
2022-08-26T15:24:13.789Z,0.75
2022-08-26T15:26:40.706Z,0.70
2022-08-26T15:29:08.171Z,1.00
2022-08-26T15:31:37.588Z,1.00
2022-08-26T15:34:06.804Z,0.68
2022-08-26T15:36:37.033Z,0.80
2022-08-26T15:39:05.103Z,0.60
2022-08-26T15:41:31.976Z,0.80
2022-08-26T15:44:03.443Z,1.25
2022-08-26T15:46:33.974Z,0.75
2022-08-26T15:49:06.363Z,0.82
2022-08-26T15:51:35.947Z,0.80
2022-08-26T15:54:16.764Z,0.82
2022-08-26T15:56:44.107Z,0.70
2022-08-26T15:59:11.614Z,0.82
2022-08-26T16:01:39.146Z,0.90
2022-08-26T16:04:06.982Z,0.70
2022-08-26T16:06:34.901Z,0.80
2022-08-26T16:09:01.921Z,0.82
2022-08-26T16:11:29.252Z,0.70
2022-08-26T16:13:56.105Z,0.70
2022-08-26T16:16:25.653Z,0.60
2022-08-26T16:18:53.136Z,0.73
2022-08-26T16:21:27.863Z,0.75
2022-08-26T16:23:58.467Z,1.10
2022-08-26T16:26:32.016Z,0.80
2022-08-26T16:29:03.630Z,0.90
2022-08-26T16:31:33.057Z,1.02
2022-08-26T16:34:00.388Z,0.60
2022-08-26T16:36:27.583Z,1.10
2022-08-26T16:38:56.406Z,0.70
2022-08-26T16:41:30.923Z,0.73
2022-08-26T16:43:58.349Z,0.80
2022-08-26T16:46:26.252Z,0.80
2022-08-26T16:48:57.112Z,0.80
2022-08-26T16:51:27.128Z,0.77
2022-08-26T16:53:55.200Z,0.60
2022-08-26T16:56:24.250Z,0.70
2022-08-26T16:59:01.118Z,0.85
2022-08-26T17:01:30.229Z,0.70
2022-08-26T17:03:57.547Z,0.80
2022-08-26T17:06:30.515Z,0.60
2022-08-26T17:08:57.431Z,0.70
2022-08-26T17:11:24.490Z,1.05
2022-08-26T17:13:51.733Z,0.80
2022-08-26T17:16:19.734Z,0.82
2022-08-26T17:18:48.199Z,0.60
2022-08-26T17:21:17.862Z,0.77
2022-08-26T17:23:45.171Z,0.65
2022-08-26T17:26:15.290Z,1.00
2022-08-26T17:28:45.629Z,0.68
2022-08-26T17:31:13.182Z,0.68
2022-08-26T17:33:41.009Z,0.60
2022-08-26T17:36:11.245Z,0.75
2022-08-26T17:38:38.228Z,0.80
2022-08-26T17:41:12.646Z,0.63
2022-08-26T17:43:43.155Z,0.80
2022-08-26T17:46:13.234Z,0.68
2022-08-26T17:48:43.405Z,0.80
2022-08-26T17:51:12.868Z,0.70
2022-08-26T17:53:41.515Z,0.60
2022-08-26T17:56:18.659Z,0.70
2022-08-26T17:58:51.657Z,0.70
2022-08-26T18:01:20.297Z,0.70
2022-08-26T18:03:47.736Z,0.60
2022-08-26T18:06:17.913Z,0.60
2022-08-26T18:08:45.303Z,0.65
2022-08-26T18:11:14.352Z,0.70
2022-08-26T18:13:47.112Z,0.60
2022-08-26T18:16:15.450Z,0.52
2022-08-26T18:18:43.271Z,0.60
2022-08-26T18:21:18.449Z,0.60
2022-08-26T18:23:45.998Z,0.70
2022-08-26T18:26:25.570Z,0.70
2022-08-26T18:28:52.946Z,0.55
2022-08-26T18:31:20.398Z,0.63
2022-08-26T18:33:47.302Z,0.60
2022-08-26T18:36:23.479Z,0.70
2022-08-26T18:38:51.106Z,0.70
2022-08-26T18:41:20.842Z,0.63
2022-08-26T18:43:50.474Z,0.77
2022-08-26T18:46:25.139Z,1.10
2022-08-26T18:48:54.034Z,0.75
2022-08-26T18:51:26.458Z,0.80
2022-08-26T18:53:53.337Z,1.00
2022-08-26T18:56:20.589Z,0.60
2022-08-26T18:58:48.009Z,0.77
2022-08-26T19:01:16.160Z,0.60
2022-08-26T19:03:46.098Z,0.75
2022-08-26T19:06:17.541Z,0.90
2022-08-26T19:08:44.966Z,0.90
2022-08-26T19:11:14.550Z,0.95
2022-08-26T19:13:42.887Z,0.88
2022-08-26T19:16:20.576Z,0.80
2022-08-26T19:18:47.878Z,1.55
2022-08-26T19:21:14.957Z,1.02
2022-08-26T19:23:42.142Z,1.10
2022-08-26T19:26:09.123Z,1.30
2022-08-26T19:28:36.065Z,1.00
2022-08-26T19:31:02.955Z,1.27
2022-08-26T19:33:30.014Z,1.20
2022-08-26T19:35:57.112Z,1.00
2022-08-26T19:38:24.518Z,0.90
2022-08-26T19:40:54.817Z,0.63
2022-08-26T19:43:22.196Z,1.00
2022-08-26T19:45:49.757Z,0.80
2022-08-26T19:48:17.002Z,0.85
2022-08-26T19:50:47.742Z,1.17
2022-08-26T19:53:15.736Z,0.95
2022-08-26T19:55:43.122Z,0.80
2022-08-26T19:58:11.694Z,1.00
2022-08-26T20:00:42.962Z,1.00
2022-08-26T20:03:13.050Z,0.82
2022-08-26T20:05:43.232Z,1.07
2022-08-26T20:08:22.287Z,0.98
2022-08-26T20:10:54.228Z,1.08
2022-08-26T20:13:22.180Z,1.00
2022-08-26T20:15:49.151Z,1.08
2022-08-26T20:18:37.576Z,1.08
2022-08-26T20:21:23.302Z,0.90
2022-08-26T20:23:51.829Z,1.00
2022-08-26T20:26:19.192Z,1.40
2022-08-26T20:28:51.081Z,1.05
2022-08-26T20:31:23.593Z,1.35
2022-08-26T20:33:51.897Z,1.15
2022-08-26T20:36:22.695Z,1.10
2022-08-26T20:38:50.030Z,1.08
2022-08-26T20:41:17.682Z,1.48
2022-08-26T20:43:50.671Z,1.02
2022-08-26T20:46:20.300Z,1.30
2022-08-26T20:48:49.869Z,1.25
2022-08-26T20:51:17.179Z,1.60
2022-08-26T20:53:44.762Z,1.20
2022-08-26T20:56:13.259Z,1.42
2022-08-26T20:58:41.000Z,1.40
2022-08-26T21:01:18.557Z,1.70
2022-08-26T21:03:46.456Z,1.77
2022-08-26T21:06:13.869Z,1.70
2022-08-26T21:08:43.201Z,1.45
2022-08-26T21:11:13.867Z,1.50
2022-08-26T21:14:01.680Z,1.63
2022-08-26T21:16:29.104Z,1.88
2022-08-26T21:18:56.468Z,2.03
2022-08-26T21:21:27.914Z,2.03
2022-08-26T21:23:55.792Z,1.63
2022-08-26T21:26:32.092Z,2.03
2022-08-26T21:29:03.341Z,1.55
2022-08-26T21:31:32.030Z,1.90
2022-08-26T21:33:59.697Z,2.35
2022-08-26T21:36:26.864Z,2.08
2022-08-26T21:38:59.036Z,1.92
2022-08-26T21:41:26.675Z,1.73
2022-08-26T21:43:55.664Z,1.83
2022-08-26T21:46:23.593Z,1.80
2022-08-26T21:49:00.156Z,1.60
2022-08-26T21:51:29.471Z,2.20
2022-08-26T21:53:57.425Z,1.80
2022-08-26T21:56:28.749Z,2.00
2022-08-26T21:58:56.243Z,1.92
2022-08-26T22:01:27.482Z,1.80
2022-08-26T22:03:54.793Z,1.52
2022-08-26T22:06:23.894Z,1.58
2022-08-26T22:08:50.929Z,1.60
2022-08-26T22:11:18.873Z,1.70
2022-08-26T22:13:46.019Z,2.53
2022-08-26T22:16:13.571Z,2.35
2022-08-26T22:18:43.787Z,2.50
2022-08-26T22:21:14.530Z,3.17
2022-08-26T22:23:41.567Z,2.75
2022-08-26T22:26:09.669Z,2.45
2022-08-26T22:28:36.859Z,2.25
2022-08-26T22:31:03.910Z,1.95
2022-08-26T22:33:31.086Z,1.90
2022-08-26T22:35:58.122Z,1.80
2022-08-26T22:38:24.920Z,2.10
2022-08-26T22:40:58.604Z,1.90
2022-08-26T22:43:26.451Z,1.73
2022-08-26T22:45:53.750Z,1.77
2022-08-26T22:48:22.869Z,1.55
2022-08-26T22:50:50.290Z,1.90
2022-08-26T22:53:17.757Z,1.85
2022-08-26T22:55:44.949Z,1.58
2022-08-26T22:58:13.962Z,1.55
2022-08-26T23:00:42.103Z,1.73
2022-08-26T23:03:09.147Z,1.70
2022-08-26T23:05:36.232Z,1.77
2022-08-26T23:08:03.827Z,2.10
2022-08-26T23:10:31.212Z,1.73
2022-08-26T23:13:04.888Z,1.60
2022-08-26T23:15:35.005Z,1.63
2022-08-26T23:18:02.356Z,1.55
2022-08-26T23:20:32.089Z,2.17
2022-08-26T23:23:00.126Z,1.77
2022-08-26T23:25:31.896Z,1.60
2022-08-26T23:28:00.510Z,1.60
2022-08-26T23:30:32.243Z,1.65
2022-08-26T23:32:59.706Z,1.73
2022-08-26T23:35:33.758Z,1.63
2022-08-26T23:40:33.611Z,1.58
2022-08-26T23:43:03.324Z,1.75
2022-08-26T23:45:30.761Z,1.88
2022-08-26T23:48:01.250Z,1.40
2022-08-26T23:50:49.947Z,1.80
2022-08-26T23:53:21.860Z,1.80
2022-08-26T23:55:50.738Z,1.48
2022-08-26T23:58:18.807Z,1.77
